Alban, Wisconsin
Current Conditions -  °F | °C
As of 11:15 AM on Friday 24 Oct 2014 (Local Time) from KSTE Reporting Station
Haze Haze  
Wind Chill:   Ceiling: 200
Heat Index:   Visibility: 1.5mi
Dew Point:   Wind: 7mph
Humidity: 100%   Direction: 190°S
Pressure: 30.01"   Gusts: NA
Location:  44.6794°N, 89.3392°W
Report Text: KSTE 241615Z AUTO 19006KT 1 1/2SM BR OVC002 07/07 A3001 RMK AO2 VIS 1V2 1/2 T00720072
Loading
Personal Weather Stations






























Interactive Weather Map
Tropical Storm Tracking
New forecast layout! Learn more

10-Day Weather Forecast

Advertisements
Track Severe Weather on mobile